sensor_id;sensor_type;location;lat;lon;timestamp;pressure;altitude;pressure_sealevel;temperature;humidity
8398;BME280;4236;54.504;9.588;2022-08-26T00:01:53;101580.97;;;19.59;100.00
8398;BME280;4236;54.504;9.588;2022-08-26T00:04:21;101568.50;;;19.58;100.00
8398;BME280;4236;54.504;9.588;2022-08-26T00:06:50;101574.38;;;19.55;100.00
8398;BME280;4236;54.504;9.588;2022-08-26T00:09:19;101573.81;;;19.53;100.00
8398;BME280;4236;54.504;9.588;2022-08-26T00:11:47;101568.41;;;19.53;100.00
8398;BME280;4236;54.504;9.588;2022-08-26T00:14:16;101568.88;;;19.50;100.00
8398;BME280;4236;54.504;9.588;2022-08-26T00:16:44;101569.69;;;19.50;100.00
8398;BME280;4236;54.504;9.588;2022-08-26T00:19:15;101576.16;;;19.49;100.00
8398;BME280;4236;54.504;9.588;2022-08-26T00:21:45;101572.63;;;19.49;100.00
8398;BME280;4236;54.504;9.588;2022-08-26T00:24:15;101572.63;;;19.49;100.00
8398;BME280;4236;54.504;9.588;2022-08-26T00:26:43;101576.84;;;19.45;100.00
8398;BME280;4236;54.504;9.588;2022-08-26T00:29:11;101563.94;;;19.47;100.00
8398;BME280;4236;54.504;9.588;2022-08-26T00:31:40;101560.63;;;19.45;100.00
8398;BME280;4236;54.504;9.588;2022-08-26T00:34:11;101569.56;;;19.45;100.00
8398;BME280;4236;54.504;9.588;2022-08-26T00:36:40;101563.09;;;19.46;100.00
8398;BME280;4236;54.504;9.588;2022-08-26T00:39:08;101567.09;;;19.44;100.00
8398;BME280;4236;54.504;9.588;2022-08-26T00:41:37;101560.03;;;19.43;100.00
8398;BME280;4236;54.504;9.588;2022-08-26T00:44:06;101554.03;;;19.41;100.00
8398;BME280;4236;54.504;9.588;2022-08-26T00:46:37;101554.03;;;19.41;100.00
8398;BME280;4236;54.504;9.588;2022-08-26T00:49:14;101563.78;;;19.42;100.00
8398;BME280;4236;54.504;9.588;2022-08-26T00:51:49;101565.69;;;19.41;100.00
8398;BME280;4236;54.504;9.588;2022-08-26T00:54:19;101562.38;;;19.39;100.00
8398;BME280;4236;54.504;9.588;2022-08-26T00:56:51;101551.56;;;19.39;100.00
8398;BME280;4236;54.504;9.588;2022-08-26T00:59:21;101559.88;;;19.38;100.00
8398;BME280;4236;54.504;9.588;2022-08-26T01:01:50;101557.19;;;19.38;100.00
8398;BME280;4236;54.504;9.588;2022-08-26T01:04:20;101553.88;;;19.35;100.00
8398;BME280;4236;54.504;9.588;2022-08-26T01:06:53;101558.47;;;19.35;100.00
8398;BME280;4236;54.504;9.588;2022-08-26T01:09:21;101559.53;;;19.34;100.00
8398;BME280;4236;54.504;9.588;2022-08-26T01:11:51;101557.88;;;19.33;100.00
8398;BME280;4236;54.504;9.588;2022-08-26T01:14:23;101556.25;;;19.32;100.00
8398;BME280;4236;54.504;9.588;2022-08-26T01:16:53;101563.28;;;19.33;100.00
8398;BME280;4236;54.504;9.588;2022-08-26T01:19:34;101567.88;;;19.32;100.00
8398;BME280;4236;54.504;9.588;2022-08-26T01:22:09;101564.56;;;19.30;100.00
8398;BME280;4236;54.504;9.588;2022-08-26T01:24:40;101556.47;;;19.30;100.00
8398;BME280;4236;54.504;9.588;2022-08-26T01:27:09;101565.41;;;19.31;100.00
8398;BME280;4236;54.504;9.588;2022-08-26T01:29:41;101567.06;;;19.32;100.00
8398;BME280;4236;54.504;9.588;2022-08-26T01:32:14;101561.66;;;19.32;100.00
8398;BME280;4236;54.504;9.588;2022-08-26T01:34:45;101560.81;;;19.31;100.00
8398;BME280;4236;54.504;9.588;2022-08-26T01:37:17;101561.66;;;19.32;100.00
8398;BME280;4236;54.504;9.588;2022-08-26T01:39:50;101559.75;;;19.32;100.00
8398;BME280;4236;54.504;9.588;2022-08-26T01:42:20;101568.47;;;19.34;100.00
8398;BME280;4236;54.504;9.588;2022-08-26T01:44:51;101564.13;;;19.33;100.00
8398;BME280;4236;54.504;9.588;2022-08-26T01:47:23;101560.38;;;19.34;100.00
8398;BME280;4236;54.504;9.588;2022-08-26T01:49:53;101556.81;;;19.34;100.00
8398;BME280;4236;54.504;9.588;2022-08-26T01:52:24;101552.47;;;19.33;100.00
8398;BME280;4236;54.504;9.588;2022-08-26T01:54:56;101549.19;;;19.31;100.00
8398;BME280;4236;54.504;9.588;2022-08-26T01:57:25;101546.69;;;19.29;100.00
8398;BME280;4236;54.504;9.588;2022-08-26T01:59:56;101558.59;;;19.28;100.00
8398;BME280;4236;54.504;9.588;2022-08-26T02:02:24;101554.22;;;19.27;100.00
8398;BME280;4236;54.504;9.588;2022-08-26T02:04:57;101555.28;;;19.26;100.00
8398;BME280;4236;54.504;9.588;2022-08-26T02:07:26;101554.47;;;19.26;100.00
8398;BME280;4236;54.504;9.588;2022-08-26T02:09:56;101547.41;;;19.25;100.00
8398;BME280;4236;54.504;9.588;2022-08-26T02:12:24;101549.28;;;19.24;100.00
8398;BME280;4236;54.504;9.588;2022-08-26T02:14:54;101546.59;;;19.24;100.00
8398;BME280;4236;54.504;9.588;2022-08-26T02:17:26;101538.47;;;19.24;100.00
8398;BME280;4236;54.504;9.588;2022-08-26T02:19:55;101543.31;;;19.22;100.00
8398;BME280;4236;54.504;9.588;2022-08-26T02:22:24;101546.22;;;19.21;100.00
8398;BME280;4236;54.504;9.588;2022-08-26T02:24:54;101546.47;;;19.19;100.00
8398;BME280;4236;54.504;9.588;2022-08-26T02:27:26;101542.38;;;19.17;100.00
8398;BME280;4236;54.504;9.588;2022-08-26T02:30:03;101544.22;;;19.16;100.00
8398;BME280;4236;54.504;9.588;2022-08-26T02:32:33;101539.88;;;19.15;100.00
8398;BME280;4236;54.504;9.588;2022-08-26T02:35:00;101539.28;;;19.13;100.00
8398;BME280;4236;54.504;9.588;2022-08-26T02:37:30;101537.63;;;19.12;100.00
8398;BME280;4236;54.504;9.588;2022-08-26T02:39:59;101537.63;;;19.12;100.00
8398;BME280;4236;54.504;9.588;2022-08-26T02:42:29;101539.50;;;19.12;100.00
8398;BME280;4236;54.504;9.588;2022-08-26T02:44:58;101540.34;;;19.12;100.00
8398;BME280;4236;54.504;9.588;2022-08-26T02:47:26;101532.47;;;19.11;100.00
8398;BME280;4236;54.504;9.588;2022-08-26T02:49:54;101533.53;;;19.10;100.00
8398;BME280;4236;54.504;9.588;2022-08-26T02:52:22;101537.88;;;19.11;100.00
8398;BME280;4236;54.504;9.588;2022-08-26T02:54:51;101533.53;;;19.10;100.00
8398;BME280;4236;54.504;9.588;2022-08-26T02:57:18;101535.41;;;19.09;100.00
8398;BME280;4236;54.504;9.588;2022-08-26T02:59:49;101530.00;;;19.09;100.00
8398;BME280;4236;54.504;9.588;2022-08-26T03:02:16;101532.94;;;19.08;100.00
8398;BME280;4236;54.504;9.588;2022-08-26T03:04:44;101532.94;;;19.08;100.00
8398;BME280;4236;54.504;9.588;2022-08-26T03:07:27;101532.34;;;19.06;100.00
8398;BME280;4236;54.504;9.588;2022-08-26T03:09:55;101522.59;;;19.05;100.00
8398;BME280;4236;54.504;9.588;2022-08-26T03:12:22;101523.66;;;19.04;100.00
8398;BME280;4236;54.504;9.588;2022-08-26T03:14:52;101524.69;;;19.03;100.00
8398;BME280;4236;54.504;9.588;2022-08-26T03:17:20;101526.59;;;19.02;100.00
8398;BME280;4236;54.504;9.588;2022-08-26T03:19:47;101529.50;;;19.01;100.00
8398;BME280;4236;54.504;9.588;2022-08-26T03:22:23;101516.25;;;18.99;100.00
8398;BME280;4236;54.504;9.588;2022-08-26T03:24:52;101518.94;;;18.99;100.00
8398;BME280;4236;54.504;9.588;2022-08-26T03:27:20;101526.22;;;18.99;100.00
8398;BME280;4236;54.504;9.588;2022-08-26T03:29:47;101522.91;;;18.97;100.00
8398;BME280;4236;54.504;9.588;2022-08-26T03:32:38;101516.09;;;18.94;100.00
8398;BME280;4236;54.504;9.588;2022-08-26T03:35:07;101517.97;;;18.94;100.00
8398;BME280;4236;54.504;9.588;2022-08-26T03:37:35;101516.34;;;18.93;100.00
8398;BME280;4236;54.504;9.588;2022-08-26T03:40:05;101516.56;;;18.91;100.00
8398;BME280;4236;54.504;9.588;2022-08-26T03:42:34;101513.03;;;18.91;100.00
8398;BME280;4236;54.504;9.588;2022-08-26T03:45:02;101515.75;;;18.91;100.00
8398;BME280;4236;54.504;9.588;2022-08-26T03:47:31;101501.44;;;18.90;100.00
8398;BME280;4236;54.504;9.588;2022-08-26T03:50:00;101503.06;;;18.91;100.00
8398;BME280;4236;54.504;9.588;2022-08-26T03:52:29;101498.72;;;18.90;100.00
8398;BME280;4236;54.504;9.588;2022-08-26T03:54:57;101503.31;;;18.90;100.00
8398;BME280;4236;54.504;9.588;2022-08-26T03:57:26;101503.31;;;18.90;100.00
8398;BME280;4236;54.504;9.588;2022-08-26T03:59:53;101502.47;;;18.89;100.00
8398;BME280;4236;54.504;9.588;2022-08-26T04:02:21;101502.47;;;18.89;100.00
8398;BME280;4236;54.504;9.588;2022-08-26T04:04:49;101499.78;;;18.89;100.00
8398;BME280;4236;54.504;9.588;2022-08-26T04:07:18;101495.19;;;18.90;100.00
8398;BME280;4236;54.504;9.588;2022-08-26T04:09:45;101491.66;;;18.89;100.00
8398;BME280;4236;54.504;9.588;2022-08-26T04:12:13;101491.41;;;18.91;100.00
8398;BME280;4236;54.504;9.588;2022-08-26T04:14:41;101488.13;;;18.89;100.00
8398;BME280;4236;54.504;9.588;2022-08-26T04:17:09;101488.97;;;18.89;100.00
8398;BME280;4236;54.504;9.588;2022-08-26T04:19:37;101493.31;;;18.90;100.00
8398;BME280;4236;54.504;9.588;2022-08-26T04:22:06;101490.38;;;18.92;100.00
8398;BME280;4236;54.504;9.588;2022-08-26T04:24:36;101492.84;;;18.93;100.00
8398;BME280;4236;54.504;9.588;2022-08-26T04:27:05;101492.59;;;18.95;100.00
8398;BME280;4236;54.504;9.588;2022-08-26T04:29:33;101486.97;;;18.96;100.00
8398;BME280;4236;54.504;9.588;2022-08-26T04:32:01;101490.84;;;19.00;100.00
8398;BME280;4236;54.504;9.588;2022-08-26T04:34:29;101489.53;;;19.03;100.00
8398;BME280;4236;54.504;9.588;2022-08-26T04:36:58;101488.88;;;19.07;100.00
8398;BME280;4236;54.504;9.588;2022-08-26T04:39:27;101498.16;;;19.11;100.00
8398;BME280;4236;54.504;9.588;2022-08-26T04:41:56;101488.75;;;19.14;100.00
8398;BME280;4236;54.504;9.588;2022-08-26T04:44:25;101485.09;;;19.20;100.00
8398;BME280;4236;54.504;9.588;2022-08-26T04:46:54;101486.25;;;19.24;100.00
8398;BME280;4236;54.504;9.588;2022-08-26T04:49:23;101492.97;;;19.33;100.00
8398;BME280;4236;54.504;9.588;2022-08-26T04:51:53;101494.97;;;19.38;100.00
8398;BME280;4236;54.504;9.588;2022-08-26T04:54:21;101484.41;;;19.48;100.00
8398;BME280;4236;54.504;9.588;2022-08-26T04:56:50;101482.50;;;19.60;100.00
8398;BME280;4236;54.504;9.588;2022-08-26T04:59:19;101482.59;;;19.76;100.00
8398;BME280;4236;54.504;9.588;2022-08-26T05:01:48;101488.19;;;19.86;100.00
8398;BME280;4236;54.504;9.588;2022-08-26T05:04:18;101490.88;;;19.98;100.00
8398;BME280;4236;54.504;9.588;2022-08-26T05:06:48;101491.28;;;20.18;100.00
8398;BME280;4236;54.504;9.588;2022-08-26T05:09:17;101486.63;;;20.42;100.00
8398;BME280;4236;54.504;9.588;2022-08-26T05:11:45;101480.97;;;20.77;100.00
8398;BME280;4236;54.504;9.588;2022-08-26T05:14:19;101480.84;;;20.83;100.00
8398;BME280;4236;54.504;9.588;2022-08-26T05:16:48;101481.25;;;20.92;100.00
8398;BME280;4236;54.504;9.588;2022-08-26T05:19:16;101482.97;;;20.98;100.00
8398;BME280;4236;54.504;9.588;2022-08-26T05:21:45;101486.56;;;21.04;100.00
8398;BME280;4236;54.504;9.588;2022-08-26T05:24:14;101488.38;;;21.15;100.00
8398;BME280;4236;54.504;9.588;2022-08-26T05:26:42;101484.94;;;21.19;100.00
8398;BME280;4236;54.504;9.588;2022-08-26T05:29:10;101481.06;;;21.32;100.00
8398;BME280;4236;54.504;9.588;2022-08-26T05:31:39;101488.22;;;21.60;100.00
8398;BME280;4236;54.504;9.588;2022-08-26T05:34:06;101488.94;;;21.72;100.00
8398;BME280;4236;54.504;9.588;2022-08-26T05:36:35;101488.91;;;21.88;100.00
8398;BME280;4236;54.504;9.588;2022-08-26T05:39:04;101487.81;;;21.89;100.00
8398;BME280;4236;54.504;9.588;2022-08-26T05:41:34;101488.91;;;21.88;100.00
8398;BME280;4236;54.504;9.588;2022-08-26T05:44:06;101489.34;;;22.02;100.00
8398;BME280;4236;54.504;9.588;2022-08-26T05:46:34;101489.81;;;22.21;100.00
8398;BME280;4236;54.504;9.588;2022-08-26T05:49:05;101494.53;;;22.57;100.00
8398;BME280;4236;54.504;9.588;2022-08-26T05:51:38;101492.00;;;23.09;100.00
8398;BME280;4236;54.504;9.588;2022-08-26T05:54:06;101489.66;;;23.59;100.00
8398;BME280;4236;54.504;9.588;2022-08-26T05:56:36;101487.97;;;24.20;100.00
8398;BME280;4236;54.504;9.588;2022-08-26T05:59:04;101495.16;;;24.72;100.00
8398;BME280;4236;54.504;9.588;2022-08-26T06:01:40;101481.78;;;25.26;100.00
8398;BME280;4236;54.504;9.588;2022-08-26T06:04:10;101486.59;;;25.64;95.52
8398;BME280;4236;54.504;9.588;2022-08-26T06:06:38;101493.91;;;25.89;87.45
8398;BME280;4236;54.504;9.588;2022-08-26T06:09:09;101488.56;;;26.18;87.31
8398;BME280;4236;54.504;9.588;2022-08-26T06:11:37;101483.91;;;26.62;82.60
8398;BME280;4236;54.504;9.588;2022-08-26T06:14:06;101489.47;;;26.86;80.51
8398;BME280;4236;54.504;9.588;2022-08-26T06:16:35;101486.41;;;26.92;77.21
8398;BME280;4236;54.504;9.588;2022-08-26T06:19:05;101490.06;;;27.12;77.61
8398;BME280;4236;54.504;9.588;2022-08-26T06:21:40;101487.63;;;27.10;74.71
8398;BME280;4236;54.504;9.588;2022-08-26T06:24:11;101483.63;;;26.98;75.45
8398;BME280;4236;54.504;9.588;2022-08-26T06:26:59;101486.44;;;27.45;76.59
8398;BME280;4236;54.504;9.588;2022-08-26T06:29:29;101486.16;;;27.70;74.86
8398;BME280;4236;54.504;9.588;2022-08-26T06:31:59;101482.09;;;27.68;74.35
8398;BME280;4236;54.504;9.588;2022-08-26T06:34:28;101484.41;;;27.79;69.57
8398;BME280;4236;54.504;9.588;2022-08-26T06:36:59;101482.53;;;27.75;73.29
8398;BME280;4236;54.504;9.588;2022-08-26T06:39:29;101485.81;;;27.77;70.42
8398;BME280;4236;54.504;9.588;2022-08-26T06:41:57;101482.66;;;27.88;72.84
8398;BME280;4236;54.504;9.588;2022-08-26T06:44:25;101488.38;;;27.68;70.67
8398;BME280;4236;54.504;9.588;2022-08-26T06:46:53;101479.28;;;27.49;71.38
8398;BME280;4236;54.504;9.588;2022-08-26T06:49:21;101486.22;;;27.41;68.57
8398;BME280;4236;54.504;9.588;2022-08-26T06:51:53;101480.88;;;27.26;72.39
8398;BME280;4236;54.504;9.588;2022-08-26T06:54:24;101482.47;;;27.04;72.82
8398;BME280;4236;54.504;9.588;2022-08-26T06:56:52;101479.00;;;26.59;72.59
8398;BME280;4236;54.504;9.588;2022-08-26T06:59:22;101479.66;;;26.41;77.29
8398;BME280;4236;54.504;9.588;2022-08-26T07:01:49;101479.09;;;26.44;78.76
8398;BME280;4236;54.504;9.588;2022-08-26T07:04:17;101476.38;;;26.44;78.07
8398;BME280;4236;54.504;9.588;2022-08-26T07:06:49;101478.94;;;26.69;74.11
8398;BME280;4236;54.504;9.588;2022-08-26T07:09:19;101480.66;;;26.94;74.90
8398;BME280;4236;54.504;9.588;2022-08-26T07:11:49;101486.78;;;26.42;76.05
8398;BME280;4236;54.504;9.588;2022-08-26T07:14:17;101490.28;;;25.99;77.35
8398;BME280;4236;54.504;9.588;2022-08-26T07:16:47;101494.34;;;26.06;79.32
8398;BME280;4236;54.504;9.588;2022-08-26T07:19:16;101486.41;;;26.10;79.77
8398;BME280;4236;54.504;9.588;2022-08-26T07:21:56;101487.25;;;26.05;78.90
8398;BME280;4236;54.504;9.588;2022-08-26T07:24:24;101483.16;;;26.03;80.62
8398;BME280;4236;54.504;9.588;2022-08-26T07:26:59;101490.97;;;25.70;81.41
8398;BME280;4236;54.504;9.588;2022-08-26T07:29:27;101474.00;;;25.73;82.81
8398;BME280;4236;54.504;9.588;2022-08-26T07:31:55;101484.91;;;25.78;81.61
8398;BME280;4236;54.504;9.588;2022-08-26T07:34:23;101492.75;;;26.00;82.08
8398;BME280;4236;54.504;9.588;2022-08-26T07:36:51;101489.16;;;26.10;81.00
8398;BME280;4236;54.504;9.588;2022-08-26T07:39:21;101490.31;;;25.94;81.63
8398;BME280;4236;54.504;9.588;2022-08-26T07:41:49;101488.09;;;25.96;81.44
8398;BME280;4236;54.504;9.588;2022-08-26T07:44:19;101481.06;;;25.84;81.29
8398;BME280;4236;54.504;9.588;2022-08-26T07:46:47;101486.28;;;25.76;82.40
8398;BME280;4236;54.504;9.588;2022-08-26T07:49:19;101485.53;;;25.60;82.92
8398;BME280;4236;54.504;9.588;2022-08-26T07:51:47;101480.34;;;25.54;83.33
8398;BME280;4236;54.504;9.588;2022-08-26T07:54:15;101489.91;;;25.56;85.02
8398;BME280;4236;54.504;9.588;2022-08-26T07:56:44;101481.13;;;25.74;85.77
8398;BME280;4236;54.504;9.588;2022-08-26T07:59:14;101478.16;;;25.51;84.83
8398;BME280;4236;54.504;9.588;2022-08-26T08:01:44;101477.09;;;25.42;86.79
8398;BME280;4236;54.504;9.588;2022-08-26T08:04:12;101487.19;;;25.56;87.60
8398;BME280;4236;54.504;9.588;2022-08-26T08:06:41;101474.06;;;25.58;86.01
8398;BME280;4236;54.504;9.588;2022-08-26T08:09:10;101471.88;;;25.65;84.97
8398;BME280;4236;54.504;9.588;2022-08-26T08:11:38;101480.56;;;25.77;86.20
8398;BME280;4236;54.504;9.588;2022-08-26T08:14:06;101475.88;;;25.83;86.40
8398;BME280;4236;54.504;9.588;2022-08-26T08:16:37;101477.16;;;25.96;85.06
8398;BME280;4236;54.504;9.588;2022-08-26T08:19:12;101478.47;;;26.08;83.68
8398;BME280;4236;54.504;9.588;2022-08-26T08:21:40;101479.03;;;26.15;82.40
8398;BME280;4236;54.504;9.588;2022-08-26T08:24:08;101480.09;;;26.14;82.81
8398;BME280;4236;54.504;9.588;2022-08-26T08:26:37;101485.81;;;26.23;82.29
8398;BME280;4236;54.504;9.588;2022-08-26T08:29:05;101481.47;;;26.17;82.49
8398;BME280;4236;54.504;9.588;2022-08-26T08:31:35;101474.09;;;26.17;81.80
8398;BME280;4236;54.504;9.588;2022-08-26T08:34:23;101481.44;;;26.22;82.10
8398;BME280;4236;54.504;9.588;2022-08-26T08:36:52;101475.75;;;26.13;82.06
8398;BME280;4236;54.504;9.588;2022-08-26T08:39:20;101476.25;;;26.20;82.54
8398;BME280;4236;54.504;9.588;2022-08-26T08:42:02;101478.69;;;26.27;82.25
8398;BME280;4236;54.504;9.588;2022-08-26T08:44:40;101473.47;;;26.30;82.05
8398;BME280;4236;54.504;9.588;2022-08-26T08:47:30;101484.75;;;26.19;81.27
8398;BME280;4236;54.504;9.588;2022-08-26T08:50:08;101484.75;;;26.19;84.09
8398;BME280;4236;54.504;9.588;2022-08-26T08:52:39;101489.56;;;26.32;82.45
8398;BME280;4236;54.504;9.588;2022-08-26T08:55:13;101496.00;;;26.07;83.07
8398;BME280;4236;54.504;9.588;2022-08-26T08:57:54;101495.28;;;26.35;82.53
8398;BME280;4236;54.504;9.588;2022-08-26T09:00:34;101484.41;;;26.25;83.62
8398;BME280;4236;54.504;9.588;2022-08-26T09:03:09;101494.00;;;26.28;81.79
8398;BME280;4236;54.504;9.588;2022-08-26T09:05:45;101492.94;;;26.19;81.00
8398;BME280;4236;54.504;9.588;2022-08-26T09:08:20;101487.41;;;26.29;80.63
8398;BME280;4236;54.504;9.588;2022-08-26T09:10:51;101479.97;;;26.34;81.62
8398;BME280;4236;54.504;9.588;2022-08-26T09:13:20;101493.66;;;26.34;81.02
8398;BME280;4236;54.504;9.588;2022-08-26T09:16:00;101500.50;;;26.37;81.85
8398;BME280;4236;54.504;9.588;2022-08-26T09:18:46;101482.91;;;26.48;81.09
8398;BME280;4236;54.504;9.588;2022-08-26T09:21:18;101489.91;;;26.20;80.52
8398;BME280;4236;54.504;9.588;2022-08-26T09:23:49;101489.47;;;25.93;81.98
8398;BME280;4236;54.504;9.588;2022-08-26T09:26:20;101490.53;;;26.02;83.13
8398;BME280;4236;54.504;9.588;2022-08-26T09:28:56;101485.09;;;25.97;82.84
8398;BME280;4236;54.504;9.588;2022-08-26T09:31:25;101474.69;;;25.99;83.09
8398;BME280;4236;54.504;9.588;2022-08-26T09:34:06;101479.91;;;25.96;83.36
8398;BME280;4236;54.504;9.588;2022-08-26T09:36:38;101470.94;;;25.85;83.22
8398;BME280;4236;54.504;9.588;2022-08-26T09:39:23;101480.63;;;25.57;85.18
8398;BME280;4236;54.504;9.588;2022-08-26T09:42:07;101476.00;;;25.38;85.83
8398;BME280;4236;54.504;9.588;2022-08-26T09:44:51;101471.38;;;25.28;86.76
8398;BME280;4236;54.504;9.588;2022-08-26T09:47:21;101480.97;;;25.10;88.92
8398;BME280;4236;54.504;9.588;2022-08-26T09:49:56;101484.78;;;25.09;90.38
8398;BME280;4236;54.504;9.588;2022-08-26T09:52:26;101484.81;;;25.14;90.85
8398;BME280;4236;54.504;9.588;2022-08-26T09:55:02;101482.06;;;25.09;90.65
8398;BME280;4236;54.504;9.588;2022-08-26T09:57:31;101477.69;;;25.18;91.67
8398;BME280;4236;54.504;9.588;2022-08-26T10:00:00;101476.03;;;25.27;90.90
8398;BME280;4236;54.504;9.588;2022-08-26T10:02:36;101470.84;;;25.26;90.37
8398;BME280;4236;54.504;9.588;2022-08-26T10:05:08;101473.00;;;25.44;89.96
8398;BME280;4236;54.504;9.588;2022-08-26T10:07:41;101474.09;;;25.38;89.27
8398;BME280;4236;54.504;9.588;2022-08-26T10:10:13;101474.66;;;25.50;88.87
8398;BME280;4236;54.504;9.588;2022-08-26T10:12:50;101472.94;;;25.64;88.64
8398;BME280;4236;54.504;9.588;2022-08-26T10:15:19;101474.84;;;25.69;87.69
8398;BME280;4236;54.504;9.588;2022-08-26T10:17:50;101466.84;;;25.88;86.14
8398;BME280;4236;54.504;9.588;2022-08-26T10:20:24;101468.53;;;25.73;85.22
8398;BME280;4236;54.504;9.588;2022-08-26T10:22:58;101462.00;;;25.74;86.53
8398;BME280;4236;54.504;9.588;2022-08-26T10:25:31;101457.59;;;25.78;85.54
8398;BME280;4236;54.504;9.588;2022-08-26T10:28:07;101459.97;;;25.95;85.17
8398;BME280;4236;54.504;9.588;2022-08-26T10:30:40;101459.97;;;25.95;84.52
8398;BME280;4236;54.504;9.588;2022-08-26T10:33:12;101457.16;;;26.15;84.71
8398;BME280;4236;54.504;9.588;2022-08-26T10:35:49;101474.63;;;26.14;82.53
8398;BME280;4236;54.504;9.588;2022-08-26T10:38:22;101459.81;;;26.25;82.81
8398;BME280;4236;54.504;9.588;2022-08-26T10:40:59;101458.97;;;26.30;83.08
8398;BME280;4236;54.504;9.588;2022-08-26T10:43:39;101456.50;;;26.33;83.63
8398;BME280;4236;54.504;9.588;2022-08-26T10:46:12;101464.09;;;26.42;81.65
8398;BME280;4236;54.504;9.588;2022-08-26T10:48:45;101465.53;;;26.29;80.71
8398;BME280;4236;54.504;9.588;2022-08-26T10:51:19;101467.84;;;26.51;81.46
8398;BME280;4236;54.504;9.588;2022-08-26T10:53:54;101467.47;;;26.62;81.12
8398;BME280;4236;54.504;9.588;2022-08-26T10:56:31;101458.50;;;26.57;80.74
8398;BME280;4236;54.504;9.588;2022-08-26T10:59:08;101452.50;;;26.88;81.09
8398;BME280;4236;54.504;9.588;2022-08-26T11:01:44;101452.69;;;26.97;80.33
8398;BME280;4236;54.504;9.588;2022-08-26T11:04:26;101452.34;;;27.04;79.80
8398;BME280;4236;54.504;9.588;2022-08-26T11:07:38;101453.56;;;26.92;78.33
8398;BME280;4236;54.504;9.588;2022-08-26T11:10:11;101456.25;;;26.64;79.58
8398;BME280;4236;54.504;9.588;2022-08-26T11:13:00;101446.03;;;26.40;80.71
8398;BME280;4236;54.504;9.588;2022-08-26T11:18:44;101436.63;;;26.18;83.67
8398;BME280;4236;54.504;9.588;2022-08-26T11:21:47;101447.53;;;26.23;83.51
8398;BME280;4236;54.504;9.588;2022-08-26T11:24:59;101444.53;;;26.24;84.01
8398;BME280;4236;54.504;9.588;2022-08-26T11:28:02;101438.31;;;26.48;83.75
8398;BME280;4236;54.504;9.588;2022-08-26T11:30:42;101437.75;;;26.51;82.71
8398;BME280;4236;54.504;9.588;2022-08-26T11:36:42;101430.81;;;26.29;82.82
8398;BME280;4236;54.504;9.588;2022-08-26T11:39:21;101432.25;;;26.22;83.75
8398;BME280;4236;54.504;9.588;2022-08-26T11:41:52;101417.38;;;26.33;84.48
8398;BME280;4236;54.504;9.588;2022-08-26T11:44:26;101414.09;;;26.36;82.34
8398;BME280;4236;54.504;9.588;2022-08-26T11:46:57;101415.72;;;26.37;83.12
8398;BME280;4236;54.504;9.588;2022-08-26T11:49:26;101417.34;;;26.38;82.69
8398;BME280;4236;54.504;9.588;2022-08-26T11:52:08;101422.75;;;26.48;83.21
8398;BME280;4236;54.504;9.588;2022-08-26T11:54:36;101417.97;;;26.59;82.42
8398;BME280;4236;54.504;9.588;2022-08-26T11:57:07;101421.13;;;26.76;81.91
8398;BME280;4236;54.504;9.588;2022-08-26T11:59:40;101406.69;;;26.99;80.91
8398;BME280;4236;54.504;9.588;2022-08-26T12:02:13;101418.31;;;27.38;79.64
8398;BME280;4236;54.504;9.588;2022-08-26T12:04:46;101406.19;;;27.68;76.52
8398;BME280;4236;54.504;9.588;2022-08-26T12:07:15;101414.69;;;27.67;77.29
8398;BME280;4236;54.504;9.588;2022-08-26T12:09:52;101402.31;;;27.51;76.81
8398;BME280;4236;54.504;9.588;2022-08-26T12:12:25;101404.75;;;27.52;76.39
8398;BME280;4236;54.504;9.588;2022-08-26T12:15:11;101381.84;;;27.43;77.24
8398;BME280;4236;54.504;9.588;2022-08-26T12:17:40;101374.13;;;27.45;76.23
8398;BME280;4236;54.504;9.588;2022-08-26T12:20:22;101374.47;;;27.62;77.00
8398;BME280;4236;54.504;9.588;2022-08-26T12:22:56;101368.31;;;27.70;76.48
8398;BME280;4236;54.504;9.588;2022-08-26T12:25:25;101369.06;;;27.94;74.91
8398;BME280;4236;54.504;9.588;2022-08-26T12:28:02;101363.22;;;28.20;72.82
8398;BME280;4236;54.504;9.588;2022-08-26T12:30:33;101359.22;;;28.31;71.70
8398;BME280;4236;54.504;9.588;2022-08-26T12:33:04;101364.69;;;28.31;71.18
8398;BME280;4236;54.504;9.588;2022-08-26T12:35:47;101360.56;;;28.15;71.52
8398;BME280;4236;54.504;9.588;2022-08-26T12:38:20;101353.66;;;27.98;72.84
8398;BME280;4236;54.504;9.588;2022-08-26T12:40:49;101354.63;;;28.08;71.18
8398;BME280;4236;54.504;9.588;2022-08-26T12:43:35;101352.84;;;27.98;71.14
8398;BME280;4236;54.504;9.588;2022-08-26T12:46:07;101363.38;;;27.91;71.70
8398;BME280;4236;54.504;9.588;2022-08-26T12:48:37;101360.72;;;27.86;71.04
8398;BME280;4236;54.504;9.588;2022-08-26T12:51:15;101353.50;;;27.90;71.41
8398;BME280;4236;54.504;9.588;2022-08-26T12:53:43;101356.41;;;27.80;72.85
8398;BME280;4236;54.504;9.588;2022-08-26T12:56:21;101353.66;;;27.80;73.44
8398;BME280;4236;54.504;9.588;2022-08-26T12:59:04;101352.13;;;27.74;72.03
8398;BME280;4236;54.504;9.588;2022-08-26T13:01:39;101347.22;;;27.71;72.68
8398;BME280;4236;54.504;9.588;2022-08-26T13:04:31;101343.72;;;27.46;73.21
8398;BME280;4236;54.504;9.588;2022-08-26T13:07:18;101346.22;;;27.43;73.81
8398;BME280;4236;54.504;9.588;2022-08-26T13:09:47;101354.09;;;27.26;74.96
8398;BME280;4236;54.504;9.588;2022-08-26T13:12:24;101349.50;;;26.98;77.07
8398;BME280;4236;54.504;9.588;2022-08-26T13:14:53;101342.00;;;26.84;77.36
8398;BME280;4236;54.504;9.588;2022-08-26T13:17:22;101332.75;;;26.75;77.49
8398;BME280;4236;54.504;9.588;2022-08-26T13:19:49;101338.91;;;26.62;78.61
8398;BME280;4236;54.504;9.588;2022-08-26T13:22:20;101342.97;;;26.65;78.39
8398;BME280;4236;54.504;9.588;2022-08-26T13:24:50;101347.41;;;26.61;80.02
8398;BME280;4236;54.504;9.588;2022-08-26T13:27:21;101348.69;;;26.68;78.96
8398;BME280;4236;54.504;9.588;2022-08-26T13:29:50;101348.94;;;26.72;78.59
8398;BME280;4236;54.504;9.588;2022-08-26T13:32:18;101358.38;;;26.56;79.71
8398;BME280;4236;54.504;9.588;2022-08-26T13:34:55;101356.31;;;26.71;79.17
8398;BME280;4236;54.504;9.588;2022-08-26T13:37:23;101356.31;;;26.71;79.17